< < Back
Terminal Aerodrome Forecast


Current Version              Previous Versions:   1  2  3  4  5  6  7  8  9  

Terminal Aerodrome Forecast

054
FTUS44 KOHX 070546
TAFCSV
TAF
KCSV 070546Z 0706/0806 00000KT P6SM SCT250
     FM070800 00000KT 5SM BR BKN100
     FM071300 23007G15KT P6SM SCT030 SCT120 SCT250
     FM080000 21007KT P6SM OVC250=

Latest METAR

516
SAUS70 KWBC 070600
MTRCSV
METAR KCSV 070553Z AUTO 00000KT 8SM CLR 21/19 A3015 RMK AO2 SLP187
T02110189 10250 20211 402780189 50000


USA.gov is the U.S. government's official web portal to all federal, state and local government web resources and services.